createdAt,value
2017-09-03T00:00:28.924Z,97.13
2017-09-03T00:01:28.556Z,96.82
2017-09-03T00:02:28.602Z,96.50
2017-09-03T00:03:28.127Z,96.32
2017-09-03T00:04:00.014Z,96.32
2017-09-03T00:04:28.211Z,97.30
2017-09-03T00:05:28.150Z,96.28
2017-09-03T00:06:28.191Z,97.29
2017-09-03T00:07:28.233Z,96.80
2017-09-03T00:08:28.121Z,96.71
2017-09-03T00:09:28.198Z,96.49
2017-09-03T00:10:28.136Z,97.09
2017-09-03T00:11:28.171Z,96.41
2017-09-03T00:12:29.029Z,96.79
2017-09-03T00:13:29.175Z,96.91
2017-09-03T00:14:29.019Z,95.63
2017-09-03T00:15:29.158Z,95.47
2017-09-03T00:16:29.004Z,95.61
2017-09-03T00:17:29.054Z,96.45
2017-09-03T00:18:28.590Z,96.25
2017-09-03T00:19:28.606Z,97.01
2017-09-03T00:20:28.234Z,96.34
2017-09-03T00:21:28.178Z,96.08
2017-09-03T00:22:28.228Z,96.69
2017-09-03T00:23:28.201Z,95.58
2017-09-03T00:24:28.258Z,95.85
2017-09-03T00:25:28.295Z,95.67
2017-09-03T00:26:28.242Z,95.78
2017-09-03T00:27:28.276Z,96.77
2017-09-03T00:28:28.223Z,94.67
2017-09-03T00:29:29.066Z,95.70
2017-09-03T00:30:29.037Z,95.01
2017-09-03T00:31:29.214Z,95.45
2017-09-03T00:32:29.157Z,95.90
2017-09-03T00:33:28.997Z,96.02
2017-09-03T00:34:29.132Z,97.08
2017-09-03T00:35:28.661Z,97.87
2017-09-03T00:36:28.203Z,97.64
2017-09-03T00:37:28.256Z,97.77
2017-09-03T00:38:28.295Z,97.71
2017-09-03T00:39:28.245Z,97.26
2017-09-03T00:40:28.299Z,98.25
2017-09-03T00:41:28.285Z,96.42
2017-09-03T00:42:28.241Z,98.03
2017-09-03T00:43:28.290Z,96.87
2017-09-03T00:44:28.227Z,98.15
2017-09-03T00:45:28.273Z,96.95
2017-09-03T00:46:29.127Z,96.93
2017-09-03T00:47:29.061Z,96.49
2017-09-03T00:48:29.117Z,96.74
2017-09-03T00:49:29.052Z,97.40
2017-09-03T00:50:29.098Z,96.97
2017-09-03T00:51:29.138Z,96.69
2017-09-03T00:52:29.174Z,96.62
2017-09-03T00:53:28.720Z,96.84
2017-09-03T00:54:28.277Z,96.81
2017-09-03T00:55:28.318Z,95.95
2017-09-03T00:56:28.348Z,96.40
2017-09-03T00:57:28.286Z,97.96
2017-09-03T00:58:28.330Z,98.19
2017-09-03T00:59:28.283Z,97.42
2017-09-03T01:02:43.931Z,96.93
2017-09-03T01:02:44.744Z,97.82
2017-09-03T01:02:45.556Z,97.37
2017-09-03T01:05:54.586Z,97.77
2017-09-03T01:05:55.798Z,96.45
2017-09-03T01:05:56.412Z,96.70
2017-09-03T01:08:47.904Z,96.91
2017-09-03T01:08:49.118Z,97.77
2017-09-03T01:08:49.929Z,97.29
2017-09-03T01:11:50.529Z,98.27
2017-09-03T01:11:51.344Z,98.73
2017-09-03T01:11:52.170Z,98.31
2017-09-03T01:14:32.741Z,98.24
2017-09-03T01:14:33.555Z,97.59
2017-09-03T01:14:34.472Z,96.71
2017-09-03T01:17:55.632Z,96.52
2017-09-03T01:17:56.451Z,96.55
2017-09-03T01:17:57.272Z,96.48
2017-09-03T01:21:08.852Z,96.24
2017-09-03T01:21:09.664Z,97.15
2017-09-03T01:21:10.484Z,97.04
2017-09-03T01:23:55.536Z,97.03
2017-09-03T01:23:56.755Z,97.45
2017-09-03T01:23:57.575Z,96.76
2017-09-03T01:26:32.910Z,97.65
2017-09-03T01:26:34.129Z,97.55
2017-09-03T01:26:34.965Z,97.10
2017-09-03T01:29:55.505Z,97.14
2017-09-03T01:29:56.324Z,97.65
2017-09-03T01:29:57.137Z,97.18
2017-09-03T01:32:42.857Z,97.40
2017-09-03T01:32:43.471Z,97.88
2017-09-03T01:32:44.078Z,97.45
2017-09-03T01:35:55.491Z,96.22
2017-09-03T01:35:56.718Z,96.65
2017-09-03T01:35:57.526Z,96.35
2017-09-03T01:38:32.576Z,97.31
2017-09-03T01:38:33.794Z,97.36
2017-09-03T01:38:34.397Z,97.20
2017-09-03T01:44:12.573Z,97.69
2017-09-03T01:44:13.395Z,98.13
2017-09-03T01:44:13.998Z,98.53
2017-09-03T01:44:15.021Z,97.11
2017-09-03T01:44:15.737Z,97.22
2017-09-03T01:44:28.479Z,97.67
2017-09-03T01:47:50.597Z,97.97
2017-09-03T01:47:51.405Z,97.80
2017-09-03T01:47:52.218Z,97.53
2017-09-03T01:51:08.766Z,99.01
2017-09-03T01:51:09.578Z,98.80
2017-09-03T01:51:10.291Z,98.53
2017-09-03T01:53:55.591Z,98.21
2017-09-03T01:53:56.814Z,97.88
2017-09-03T01:53:57.621Z,97.37
2017-09-03T01:57:08.851Z,97.07
2017-09-03T01:57:10.084Z,97.43
2017-09-03T01:57:10.694Z,96.89
2017-09-03T01:59:56.489Z,96.57
2017-09-03T01:59:57.403Z,97.06
2017-09-03T01:59:58.231Z,96.33
2017-09-03T02:00:28.504Z,96.83
2017-09-03T02:01:29.262Z,96.41
2017-09-03T02:02:28.507Z,97.15
2017-09-03T02:03:28.557Z,97.86
2017-09-03T02:04:28.493Z,97.25
2017-09-03T02:05:28.543Z,97.27
2017-09-03T02:06:28.487Z,96.37
2017-09-03T02:07:28.530Z,97.42
2017-09-03T02:08:28.476Z,96.80
2017-09-03T02:09:28.512Z,96.92
2017-09-03T02:10:28.554Z,97.60
2017-09-03T02:11:29.293Z,98.05
2017-09-03T02:12:29.345Z,98.50
2017-09-03T02:13:29.291Z,98.49
2017-09-03T02:14:29.334Z,97.87
2017-09-03T02:15:29.387Z,97.92
2017-09-03T02:16:28.922Z,97.76
2017-09-03T02:17:28.513Z,98.04
2017-09-03T02:18:28.554Z,99.42
2017-09-03T02:19:28.604Z,98.44
2017-09-03T02:20:28.582Z,97.75
2017-09-03T02:21:28.537Z,97.80
2017-09-03T02:22:28.585Z,97.30
2017-09-03T02:23:28.543Z,97.46
2017-09-03T02:24:28.579Z,96.30
2017-09-03T02:25:28.536Z,97.10
2017-09-03T02:26:28.575Z,96.55
2017-09-03T02:27:28.534Z,98.25
2017-09-03T02:28:29.388Z,97.07
2017-09-03T02:29:29.523Z,97.24
2017-09-03T02:30:29.370Z,96.30
2017-09-03T02:31:29.421Z,97.21
2017-09-03T02:32:29.458Z,97.84
2017-09-03T02:33:29.005Z,98.40
2017-09-03T02:34:28.547Z,97.64
2017-09-03T02:35:28.581Z,98.24
2017-09-03T02:36:28.639Z,98.07
2017-09-03T02:37:28.603Z,98.87
2017-09-03T02:38:28.631Z,98.61
2017-09-03T02:39:28.571Z,98.49
2017-09-03T02:40:28.623Z,98.26
2017-09-03T02:41:28.578Z,98.05
2017-09-03T02:42:28.605Z,97.77
2017-09-03T02:43:28.645Z,97.38
2017-09-03T02:44:28.687Z,97.54
2017-09-03T02:45:28.639Z,97.61
2017-09-03T02:46:29.385Z,97.71
2017-09-03T02:47:29.441Z,97.23
2017-09-03T02:48:29.401Z,97.22
2017-09-03T02:49:29.440Z,97.94
2017-09-03T02:50:28.987Z,98.34
2017-09-03T02:51:29.040Z,98.22
2017-09-03T02:52:28.686Z,97.88
2017-09-03T02:53:28.652Z,98.13
2017-09-03T02:54:28.691Z,98.61
2017-09-03T02:55:28.638Z,98.52
2017-09-03T02:56:28.671Z,98.06
2017-09-03T02:57:28.713Z,98.22
2017-09-03T02:58:28.661Z,97.93
2017-09-03T02:59:28.707Z,97.89
2017-09-03T03:00:28.660Z,98.05
2017-09-03T03:01:29.515Z,98.13
2017-09-03T03:02:29.455Z,98.05
2017-09-03T03:03:29.517Z,98.29
2017-09-03T03:04:29.473Z,97.86
2017-09-03T03:05:29.511Z,97.10
2017-09-03T03:06:29.048Z,97.41
2017-09-03T03:07:29.091Z,97.53
2017-09-03T03:08:29.147Z,97.67
2017-09-03T03:09:28.684Z,98.47
2017-09-03T03:10:28.643Z,98.80
2017-09-03T03:11:28.692Z,98.95
2017-09-03T03:12:28.735Z,98.29
2017-09-03T03:13:28.702Z,98.86
2017-09-03T03:14:28.645Z,98.31
2017-09-03T03:15:28.709Z,97.88
2017-09-03T03:16:28.746Z,98.79
2017-09-03T03:17:28.690Z,98.43
2017-09-03T03:18:29.530Z,98.84
2017-09-03T03:19:29.578Z,98.31
2017-09-03T03:20:29.530Z,97.91
2017-09-03T03:21:29.564Z,98.45
2017-09-03T03:22:29.501Z,97.91
2017-09-03T03:23:29.142Z,98.11
2017-09-03T03:24:29.178Z,98.34
2017-09-03T03:25:29.177Z,98.52
2017-09-03T03:26:28.717Z,98.45
2017-09-03T03:27:28.764Z,98.83
2017-09-03T03:28:28.709Z,98.60
2017-09-03T03:29:28.756Z,98.28
2017-09-03T03:30:28.815Z,98.65
2017-09-03T03:31:28.756Z,98.91
2017-09-03T03:32:28.793Z,98.30
2017-09-03T03:33:28.827Z,98.23
2017-09-03T03:34:28.764Z,98.02
2017-09-03T03:35:05.163Z,98.02
2017-09-03T03:37:00.503Z,97.80
2017-09-03T03:37:01.418Z,97.21
2017-09-03T03:37:28.790Z,97.65
2017-09-03T03:38:29.623Z,97.51
2017-09-03T03:39:29.560Z,98.44
2017-09-03T03:40:29.189Z,98.80
2017-09-03T03:41:29.233Z,97.17
2017-09-03T03:42:29.276Z,97.79
2017-09-03T03:43:28.813Z,98.19
2017-09-03T03:44:28.759Z,98.45
2017-09-03T03:45:28.796Z,97.97
2017-09-03T03:46:28.835Z,98.01
2017-09-03T03:47:28.785Z,97.48
2017-09-03T03:48:28.835Z,97.28
2017-09-03T03:49:28.796Z,96.95
2017-09-03T03:50:28.833Z,97.81
2017-09-03T03:51:28.860Z,98.47
2017-09-03T03:52:29.607Z,97.81
2017-09-03T03:53:29.647Z,97.62
2017-09-03T03:54:29.629Z,97.62
2017-09-03T03:55:29.672Z,97.07
2017-09-03T03:56:29.610Z,98.51
2017-09-03T03:57:29.242Z,97.89
2017-09-03T03:58:28.781Z,97.77
2017-09-03T03:59:28.821Z,96.96
2017-09-03T04:00:28.875Z,96.37
2017-09-03T04:01:28.809Z,97.24
2017-09-03T04:02:28.946Z,98.58
2017-09-03T04:03:28.889Z,99.42
2017-09-03T04:04:28.825Z,98.69
2017-09-03T04:05:28.867Z,98.71
2017-09-03T04:06:28.810Z,98.65
2017-09-03T04:07:28.851Z,98.28
2017-09-03T04:08:29.694Z,98.59
2017-09-03T04:09:29.640Z,98.19
2017-09-03T04:10:29.679Z,98.83
2017-09-03T04:11:29.719Z,98.89
2017-09-03T04:12:29.763Z,99.00
2017-09-03T04:13:29.709Z,98.90
2017-09-03T04:14:29.746Z,98.23
2017-09-03T04:15:29.790Z,99.16
2017-09-03T04:16:29.333Z,99.02
2017-09-03T04:17:28.968Z,99.09
2017-09-03T04:18:28.910Z,99.56
2017-09-03T04:19:28.850Z,99.14
2017-09-03T04:20:28.902Z,98.82
2017-09-03T04:21:28.841Z,97.90
2017-09-03T04:22:28.987Z,98.51
2017-09-03T04:23:28.922Z,97.74
2017-09-03T04:24:28.849Z,97.74
2017-09-03T04:25:29.201Z,98.25
2017-09-03T04:26:29.743Z,97.20
2017-09-03T04:27:29.781Z,98.50
2017-09-03T04:28:29.720Z,97.82
2017-09-03T04:29:29.758Z,97.99
2017-09-03T04:30:29.797Z,97.73
2017-09-03T04:31:29.331Z,97.68
2017-09-03T04:32:29.367Z,96.73
2017-09-03T04:33:28.912Z,96.78
2017-09-03T04:34:28.953Z,97.00
2017-09-03T04:35:28.990Z,97.20
2017-09-03T04:36:28.926Z,97.92
2017-09-03T04:37:28.965Z,97.70
2017-09-03T04:38:28.922Z,97.32
2017-09-03T04:39:28.967Z,97.37
2017-09-03T04:40:28.914Z,97.77
2017-09-03T04:41:29.767Z,98.12
2017-09-03T04:42:29.823Z,97.87
2017-09-03T04:43:29.768Z,97.62
2017-09-03T04:44:29.855Z,97.53
2017-09-03T04:45:29.809Z,97.10
2017-09-03T04:46:29.756Z,97.21
2017-09-03T04:47:29.819Z,96.99
2017-09-03T04:48:29.374Z,95.99
2017-09-03T04:49:29.416Z,97.11
2017-09-03T04:50:28.961Z,98.18
2017-09-03T04:51:29.001Z,97.63
2017-09-03T04:52:29.041Z,97.65
2017-09-03T04:53:29.000Z,98.47
2017-09-03T04:54:29.071Z,98.08
2017-09-03T04:55:29.004Z,95.87
2017-09-03T04:56:29.062Z,95.68
2017-09-03T04:57:28.994Z,95.98
2017-09-03T04:58:29.027Z,95.15
2017-09-03T04:59:29.891Z,96.35
2017-09-03T05:00:29.840Z,96.53
2017-09-03T05:01:29.798Z,96.74
2017-09-03T05:02:29.834Z,97.34
2017-09-03T05:03:29.875Z,97.28
2017-09-03T05:04:29.419Z,97.58
2017-09-03T05:05:29.473Z,97.80
2017-09-03T05:06:28.975Z,97.40
2017-09-03T05:07:29.079Z,98.08
2017-09-03T05:08:29.019Z,97.27
2017-09-03T05:09:28.985Z,97.09
2017-09-03T05:10:28.999Z,97.66
2017-09-03T05:11:29.000Z,98.04
2017-09-03T05:12:29.059Z,99.01
2017-09-03T05:13:29.037Z,98.23
2017-09-03T05:14:29.029Z,98.42
2017-09-03T05:15:29.970Z,98.76
2017-09-03T05:16:29.906Z,98.56
2017-09-03T05:17:29.847Z,98.79
2017-09-03T05:18:29.848Z,97.94
2017-09-03T05:19:29.892Z,97.56
2017-09-03T05:20:29.430Z,98.42
2017-09-03T05:21:29.466Z,98.57
2017-09-03T05:22:29.513Z,97.53
2017-09-03T05:23:29.062Z,97.63
2017-09-03T05:24:29.100Z,97.12
2017-09-03T05:25:29.067Z,96.96
2017-09-03T05:26:29.109Z,97.28
2017-09-03T05:27:29.148Z,97.61
2017-09-03T05:28:29.087Z,97.47
2017-09-03T05:29:29.121Z,97.10
2017-09-03T05:30:29.119Z,96.91
2017-09-03T05:31:29.147Z,97.40
2017-09-03T05:32:29.101Z,98.18
2017-09-03T05:33:29.963Z,97.20
2017-09-03T05:34:29.916Z,96.92
2017-09-03T05:35:29.883Z,97.06
2017-09-03T05:36:29.964Z,97.84
2017-09-03T05:37:29.929Z,97.76
2017-09-03T05:38:29.486Z,97.39
2017-09-03T05:39:29.545Z,98.47
2017-09-03T05:40:29.107Z,97.36
2017-09-03T05:41:29.151Z,97.74
2017-09-03T05:42:29.197Z,97.36
2017-09-03T05:43:29.153Z,97.78
2017-09-03T05:44:29.101Z,97.14
2017-09-03T05:45:29.156Z,97.53
2017-09-03T05:46:29.109Z,97.33
2017-09-03T05:47:29.194Z,97.14
2017-09-03T05:48:29.148Z,96.64
2017-09-03T05:49:30.009Z,96.39
2017-09-03T05:50:29.957Z,96.69
2017-09-03T05:51:30.012Z,96.37
2017-09-03T05:52:29.957Z,96.22
2017-09-03T05:53:30.300Z,96.37
2017-09-03T05:54:29.939Z,96.19
2017-09-03T05:55:29.575Z,96.24
2017-09-03T05:56:29.113Z,96.04
2017-09-03T05:57:29.149Z,96.26
2017-09-03T05:58:29.193Z,95.93
2017-09-03T05:59:29.178Z,96.68
2017-09-03T06:00:29.234Z,95.57
2017-09-03T06:01:29.169Z,96.09
2017-09-03T06:02:29.231Z,96.02
2017-09-03T06:03:29.169Z,96.50
2017-09-03T06:04:29.199Z,95.84
2017-09-03T06:05:29.130Z,95.52
2017-09-03T06:06:30.166Z,94.69
2017-09-03T06:07:29.999Z,94.73
2017-09-03T06:08:30.038Z,95.14
2017-09-03T06:09:29.973Z,95.02
2017-09-03T06:10:30.035Z,96.70
2017-09-03T06:11:29.568Z,95.99
2017-09-03T06:12:29.601Z,95.87
2017-09-03T06:13:29.636Z,95.16
2017-09-03T06:14:29.164Z,95.85
2017-09-03T06:15:29.297Z,95.77
2017-09-03T06:16:29.838Z,96.39
2017-09-03T06:17:29.296Z,95.94
2017-09-03T06:18:29.249Z,95.31
2017-09-03T06:19:29.178Z,95.71
2017-09-03T06:20:29.214Z,95.52
2017-09-03T06:21:29.266Z,96.68
2017-09-03T06:22:29.304Z,96.86
2017-09-03T06:23:29.568Z,95.54
2017-09-03T06:24:29.310Z,95.72
2017-09-03T06:25:30.157Z,94.95
2017-09-03T06:26:30.049Z,96.48
2017-09-03T06:27:30.128Z,96.28
2017-09-03T06:28:30.103Z,96.47
2017-09-03T06:29:29.642Z,95.44
2017-09-03T06:30:30.693Z,96.11
2017-09-03T06:31:29.230Z,96.63
2017-09-03T06:32:30.064Z,95.55
2017-09-03T06:33:29.295Z,95.24
2017-09-03T06:34:29.233Z,94.92
2017-09-03T06:35:29.272Z,95.16
2017-09-03T06:36:29.315Z,95.88
2017-09-03T06:37:29.354Z,96.05
2017-09-03T06:38:29.293Z,95.67
2017-09-03T06:39:29.328Z,95.78
2017-09-03T06:40:29.267Z,95.49
2017-09-03T06:41:30.216Z,96.39
2017-09-03T06:42:30.114Z,95.56
2017-09-03T06:43:30.156Z,94.58
2017-09-03T06:44:30.106Z,95.52
2017-09-03T06:45:30.152Z,95.93
2017-09-03T06:46:30.121Z,95.04
2017-09-03T06:47:30.167Z,94.42
2017-09-03T06:48:29.299Z,94.79
2017-09-03T06:49:29.347Z,95.64
2017-09-03T06:50:29.305Z,94.27
2017-09-03T06:51:29.353Z,94.01
2017-09-03T06:52:29.403Z,93.91
2017-09-03T06:53:29.359Z,93.71
2017-09-03T06:54:29.311Z,94.87
2017-09-03T06:55:29.374Z,93.90
2017-09-03T06:56:29.357Z,93.92
2017-09-03T06:57:29.401Z,93.88
2017-09-03T06:58:29.340Z,94.67
2017-09-03T06:59:30.187Z,93.53
2017-09-03T07:00:30.352Z,92.98
2017-09-03T07:01:30.193Z,93.64
2017-09-03T07:02:30.169Z,93.65
2017-09-03T07:03:29.717Z,92.21
2017-09-03T07:04:29.772Z,90.52
2017-09-03T07:05:29.316Z,91.27
2017-09-03T07:06:29.353Z,90.54
2017-09-03T07:07:29.402Z,91.56
2017-09-03T07:08:29.367Z,91.78
2017-09-03T07:09:29.382Z,90.86
2017-09-03T07:10:29.338Z,91.15
2017-09-03T07:11:29.380Z,91.58
2017-09-03T07:12:29.450Z,91.03
2017-09-03T07:13:29.423Z,92.86
2017-09-03T07:14:29.363Z,91.55
2017-09-03T07:15:30.319Z,91.35
2017-09-03T07:16:30.163Z,89.76
2017-09-03T07:17:30.304Z,89.68
2017-09-03T07:18:30.455Z,88.18
2017-09-03T07:19:30.312Z,88.30
2017-09-03T07:20:30.260Z,90.28
2017-09-03T07:21:29.797Z,88.80
2017-09-03T07:22:29.862Z,88.19
2017-09-03T07:23:29.903Z,88.73
2017-09-03T07:24:29.441Z,87.91
2017-09-03T07:25:29.386Z,86.30
2017-09-03T07:26:29.438Z,86.41
2017-09-03T07:27:29.491Z,86.76
2017-09-03T07:28:29.506Z,87.30
2017-09-03T07:29:29.388Z,85.99
2017-09-03T07:30:29.473Z,85.02
2017-09-03T07:31:29.519Z,87.59
2017-09-03T07:32:29.467Z,86.80
2017-09-03T07:33:30.318Z,85.14
2017-09-03T07:34:30.294Z,84.50
2017-09-03T07:35:30.454Z,85.21
2017-09-03T07:36:30.310Z,84.81
2017-09-03T07:37:29.862Z,83.92
2017-09-03T07:38:29.909Z,83.98
2017-09-03T07:39:29.453Z,84.42
2017-09-03T07:40:29.524Z,83.94
2017-09-03T07:41:29.474Z,83.96
2017-09-03T07:42:29.527Z,81.48
2017-09-03T07:43:29.473Z,83.49
2017-09-03T07:44:29.436Z,82.68
2017-09-03T07:45:29.501Z,82.21
2017-09-03T07:46:29.547Z,82.93
2017-09-03T07:47:29.500Z,82.53
2017-09-03T07:48:29.452Z,81.35
2017-09-03T07:49:30.322Z,82.36
2017-09-03T07:50:30.340Z,83.04
2017-09-03T07:51:30.313Z,83.54
2017-09-03T07:52:30.359Z,80.96
2017-09-03T07:53:30.410Z,79.99
2017-09-03T07:54:30.358Z,78.63
2017-09-03T07:55:29.901Z,78.73
2017-09-03T07:56:29.979Z,78.79
2017-09-03T07:57:29.523Z,78.76
2017-09-03T07:58:29.570Z,79.46
2017-09-03T07:59:29.528Z,77.21
2017-09-03T08:00:29.490Z,77.29
2017-09-03T08:01:29.557Z,78.11
2017-09-03T08:02:29.502Z,79.00
2017-09-03T08:03:29.547Z,80.63
2017-09-03T08:04:29.484Z,79.52
2017-09-03T08:05:30.446Z,78.24
2017-09-03T08:06:30.188Z,81.48
2017-09-03T08:07:30.374Z,79.36
2017-09-03T08:08:30.336Z,76.20
2017-09-03T08:09:30.487Z,77.01
2017-09-03T08:10:30.353Z,76.04
2017-09-03T08:11:30.424Z,77.47
2017-09-03T08:12:29.963Z,77.05
2017-09-03T08:13:29.548Z,75.62
2017-09-03T08:14:29.541Z,76.74
2017-09-03T08:15:29.547Z,75.46
2017-09-03T08:16:29.610Z,75.93
2017-09-03T08:17:29.578Z,77.80
2017-09-03T08:18:29.642Z,76.50
2017-09-03T08:19:29.627Z,75.58
2017-09-03T08:20:29.605Z,75.12
2017-09-03T08:21:29.576Z,74.65
2017-09-03T08:22:29.626Z,75.19
2017-09-03T08:23:30.383Z,73.83
2017-09-03T08:24:30.453Z,71.51
2017-09-03T08:25:30.410Z,72.63
2017-09-03T08:26:30.473Z,72.69
2017-09-03T08:27:30.429Z,74.05
2017-09-03T08:28:29.995Z,72.03
2017-09-03T08:29:30.055Z,71.07
2017-09-03T08:30:29.614Z,71.63
2017-09-03T08:31:29.662Z,72.24
2017-09-03T08:32:29.631Z,71.32
2017-09-03T08:33:29.685Z,70.93
2017-09-03T08:34:29.634Z,71.08
2017-09-03T08:35:29.693Z,70.13
2017-09-03T08:36:29.651Z,70.84
2017-09-03T08:37:29.623Z,71.78
2017-09-03T08:38:29.689Z,70.27
2017-09-03T08:39:29.653Z,70.43
2017-09-03T08:40:30.464Z,70.97
2017-09-03T08:41:30.511Z,71.83
2017-09-03T08:42:30.454Z,70.16
2017-09-03T08:43:30.501Z,68.57
2017-09-03T08:44:30.039Z,68.02
2017-09-03T08:45:30.087Z,68.76
2017-09-03T08:46:29.643Z,68.70
2017-09-03T08:47:29.719Z,69.06
2017-09-03T08:48:29.718Z,67.14
2017-09-03T08:49:29.667Z,69.31
2017-09-03T08:50:29.756Z,67.98
2017-09-03T08:51:29.702Z,69.20
2017-09-03T08:52:29.636Z,65.52
2017-09-03T08:53:29.700Z,63.92
2017-09-03T08:54:29.666Z,66.21
2017-09-03T08:55:29.690Z,64.97
2017-09-03T08:56:30.537Z,64.98
2017-09-03T08:57:30.522Z,63.78
2017-09-03T08:58:30.507Z,66.78
2017-09-03T08:59:30.467Z,65.21
2017-09-03T09:00:30.476Z,65.58
2017-09-03T09:01:30.540Z,65.09
2017-09-03T09:02:30.083Z,65.17
2017-09-03T09:03:29.698Z,61.62
2017-09-03T09:04:29.717Z,62.32
2017-09-03T09:05:29.767Z,63.38
2017-09-03T09:06:29.746Z,64.79
2017-09-03T09:07:29.732Z,62.22
2017-09-03T09:08:29.781Z,62.30
2017-09-03T09:09:29.690Z,62.20
2017-09-03T09:10:29.726Z,61.12
2017-09-03T09:11:29.770Z,59.75
2017-09-03T09:12:29.709Z,61.79
2017-09-03T09:13:30.548Z,60.68
2017-09-03T09:14:30.501Z,61.66
2017-09-03T09:15:30.557Z,60.45
2017-09-03T09:16:30.613Z,60.90
2017-09-03T09:17:30.578Z,61.14
2017-09-03T09:18:30.145Z,58.51
2017-09-03T09:19:30.194Z,57.29
2017-09-03T09:20:30.203Z,57.14
2017-09-03T09:21:30.254Z,56.53
2017-09-03T09:22:29.716Z,56.59
2017-09-03T09:23:29.719Z,55.11
2017-09-03T09:24:29.800Z,53.97
2017-09-03T09:25:29.902Z,54.28
2017-09-03T09:26:29.763Z,54.66
2017-09-03T09:27:29.744Z,55.98
2017-09-03T09:28:29.801Z,58.15
2017-09-03T09:29:29.749Z,57.66
2017-09-03T09:30:30.632Z,56.13
2017-09-03T09:31:30.615Z,54.17
2017-09-03T09:32:30.589Z,53.65
2017-09-03T09:33:30.649Z,59.25
2017-09-03T09:34:30.603Z,59.38
2017-09-03T09:35:30.738Z,62.01
2017-09-03T09:36:30.190Z,62.77
2017-09-03T09:37:30.245Z,64.67
2017-09-03T09:38:29.807Z,64.60
2017-09-03T09:39:29.765Z,64.07
2017-09-03T09:40:29.827Z,65.89
2017-09-03T09:41:29.786Z,65.68
2017-09-03T09:42:29.851Z,68.04
2017-09-03T09:43:29.820Z,69.36
2017-09-03T09:44:31.489Z,69.30
2017-09-03T09:45:31.663Z,68.49
2017-09-03T09:46:31.869Z,69.21
2017-09-03T09:47:31.351Z,69.78
2017-09-03T09:48:29.892Z,70.23
2017-09-03T09:49:30.649Z,72.38
2017-09-03T09:50:30.809Z,69.78
2017-09-03T09:51:30.677Z,71.01
2017-09-03T09:52:30.656Z,70.95
2017-09-03T09:53:30.235Z,69.64
2017-09-03T09:54:30.944Z,70.41
2017-09-03T09:55:29.882Z,67.48
2017-09-03T09:56:29.826Z,67.43
2017-09-03T09:57:29.910Z,68.13
2017-09-03T09:58:30.284Z,68.31
2017-09-03T09:59:30.291Z,67.68
2017-09-03T10:00:30.299Z,69.82
2017-09-03T10:01:30.646Z,67.28
2017-09-03T10:02:30.713Z,68.03
2017-09-03T10:03:30.672Z,68.92
2017-09-03T10:04:30.654Z,68.91
2017-09-03T10:05:30.781Z,68.92
2017-09-03T10:06:30.673Z,69.35
2017-09-03T10:07:30.663Z,69.21
2017-09-03T10:08:30.669Z,66.01
2017-09-03T10:09:30.287Z,63.57
2017-09-03T10:10:30.312Z,63.49
2017-09-03T10:11:29.890Z,64.45
2017-09-03T10:12:29.910Z,63.24
2017-09-03T10:13:29.907Z,60.69
2017-09-03T10:14:29.886Z,61.09
2017-09-03T10:15:29.947Z,59.52
2017-09-03T10:16:29.891Z,53.98
2017-09-03T10:17:29.959Z,57.01
2017-09-03T10:18:29.947Z,53.77
2017-09-03T10:19:29.896Z,53.62
2017-09-03T10:20:30.057Z,55.83
2017-09-03T10:21:29.918Z,57.78
2017-09-03T10:22:30.779Z,61.33
2017-09-03T10:23:30.805Z,60.43
2017-09-03T10:24:30.770Z,60.54
2017-09-03T10:25:30.846Z,61.55
2017-09-03T10:26:30.805Z,63.14
2017-09-03T10:27:30.368Z,63.48
2017-09-03T10:28:30.378Z,63.83
2017-09-03T10:29:29.953Z,64.06
2017-09-03T10:30:30.081Z,65.63
2017-09-03T10:31:29.962Z,67.40
2017-09-03T10:32:29.992Z,65.04
2017-09-03T10:33:29.950Z,65.36
2017-09-03T10:34:30.074Z,66.49
2017-09-03T10:35:30.002Z,64.54
2017-09-03T10:36:29.936Z,65.66
2017-09-03T10:37:30.814Z,63.26
2017-09-03T10:38:30.811Z,66.96
2017-09-03T10:39:30.816Z,68.18
2017-09-03T10:40:30.832Z,67.01
2017-09-03T10:41:30.804Z,68.49
2017-09-03T10:42:30.788Z,64.82
2017-09-03T10:43:30.466Z,65.89
2017-09-03T10:44:30.391Z,61.96
2017-09-03T10:45:30.430Z,60.65
2017-09-03T10:46:29.995Z,57.36
2017-09-03T10:47:29.967Z,57.23
2017-09-03T10:48:30.049Z,56.13
2017-09-03T10:49:30.019Z,55.75
2017-09-03T10:50:30.002Z,52.40
2017-09-03T10:51:29.996Z,54.52
2017-09-03T10:52:30.084Z,56.38
2017-09-03T10:53:30.052Z,56.50
2017-09-03T10:54:30.085Z,53.15
2017-09-03T10:55:29.995Z,51.96
2017-09-03T10:56:30.842Z,54.40
2017-09-03T10:57:30.808Z,48.33
2017-09-03T10:58:30.864Z,49.71
2017-09-03T10:59:35.944Z,53.65
2017-09-03T11:00:30.054Z,52.49
2017-09-03T11:01:31.028Z,51.84
2017-09-03T11:02:30.053Z,53.02
2017-09-03T11:03:30.108Z,49.57
2017-09-03T11:04:30.053Z,50.75
2017-09-03T11:05:30.112Z,51.56
2017-09-03T11:06:30.046Z,49.56
2017-09-03T11:07:30.057Z,50.43
2017-09-03T11:08:30.061Z,52.09
2017-09-03T11:09:30.048Z,51.77
2017-09-03T11:10:30.147Z,53.10
2017-09-03T11:11:30.116Z,52.82
2017-09-03T11:12:30.102Z,52.64
2017-09-03T11:13:30.897Z,53.87
2017-09-03T11:14:30.898Z,57.08
2017-09-03T11:15:31.244Z,54.98
2017-09-03T11:16:30.882Z,54.89
2017-09-03T11:17:31.052Z,54.28
2017-09-03T11:18:30.546Z,57.94
2017-09-03T11:19:30.519Z,56.29
2017-09-03T11:20:30.614Z,59.41
2017-09-03T11:21:30.059Z,58.69
2017-09-03T11:22:30.106Z,59.04
2017-09-03T11:23:30.085Z,59.27
2017-09-03T11:24:30.107Z,60.78
2017-09-03T11:25:30.114Z,59.69
2017-09-03T11:26:30.103Z,61.23
2017-09-03T11:27:30.161Z,62.99
2017-09-03T11:28:30.105Z,65.14
2017-09-03T11:29:30.971Z,62.05
2017-09-03T11:30:30.971Z,62.47
2017-09-03T11:31:30.969Z,63.18
2017-09-03T11:32:30.951Z,65.45
2017-09-03T11:33:31.134Z,64.25
2017-09-03T11:34:30.511Z,63.39
2017-09-03T11:35:35.992Z,63.67
2017-09-03T11:36:30.160Z,64.48
2017-09-03T11:37:31.021Z,63.63
2017-09-03T11:38:30.179Z,63.20
2017-09-03T11:39:30.126Z,63.35
2017-09-03T11:40:30.185Z,62.69
2017-09-03T11:41:30.219Z,62.87
2017-09-03T11:42:30.134Z,63.98
2017-09-03T11:43:30.210Z,63.14
2017-09-03T11:44:30.196Z,63.55
2017-09-03T11:45:30.167Z,61.71
2017-09-03T11:46:36.034Z,59.19
2017-09-03T11:47:30.231Z,58.48
2017-09-03T11:48:31.117Z,59.53
2017-09-03T11:49:31.084Z,55.55
2017-09-03T11:50:30.955Z,56.62
2017-09-03T11:51:30.547Z,56.43
2017-09-03T11:52:31.046Z,55.22
2017-09-03T11:53:30.624Z,56.09
2017-09-03T11:54:30.168Z,57.32
2017-09-03T11:55:30.250Z,55.35
2017-09-03T11:56:30.301Z,57.24
2017-09-03T11:57:30.190Z,55.15
2017-09-03T11:58:30.264Z,55.15
2017-09-03T11:59:30.227Z,59.08
2017-09-03T12:00:30.188Z,57.10
2017-09-03T12:01:30.260Z,60.33
2017-09-03T12:02:36.075Z,59.25
2017-09-03T12:03:30.214Z,60.31
2017-09-03T12:04:31.081Z,59.14
2017-09-03T12:05:31.029Z,60.32
2017-09-03T12:06:31.344Z,62.62
2017-09-03T12:07:31.208Z,59.55
2017-09-03T12:08:31.214Z,61.98
2017-09-03T12:09:31.400Z,62.31
2017-09-03T12:10:31.290Z,61.72
2017-09-03T12:11:30.240Z,62.08
2017-09-03T12:12:30.222Z,63.49
2017-09-03T12:13:30.227Z,61.84
2017-09-03T12:14:30.203Z,61.83
2017-09-03T12:15:30.290Z,62.77
2017-09-03T12:16:30.257Z,63.92
2017-09-03T12:17:30.346Z,63.35
2017-09-03T12:18:30.457Z,64.28
2017-09-03T12:19:30.246Z,65.42
2017-09-03T12:20:31.094Z,62.36
2017-09-03T12:21:31.052Z,63.77
2017-09-03T12:22:31.030Z,64.28
2017-09-03T12:23:31.135Z,63.86
2017-09-03T12:24:31.157Z,65.43
2017-09-03T12:25:31.252Z,62.53
2017-09-03T12:26:30.878Z,64.74
2017-09-03T12:27:30.259Z,64.47
2017-09-03T12:28:30.324Z,65.06
2017-09-03T12:29:30.312Z,63.13
2017-09-03T12:30:30.341Z,62.70
2017-09-03T12:31:30.316Z,63.02
2017-09-03T12:32:30.289Z,62.54
2017-09-03T12:33:30.372Z,64.55
2017-09-03T12:34:30.320Z,62.87
2017-09-03T12:35:30.291Z,60.92
2017-09-03T12:36:30.278Z,62.62
2017-09-03T12:37:31.211Z,61.06
2017-09-03T12:38:31.261Z,61.18
2017-09-03T12:39:31.157Z,64.84
2017-09-03T12:40:31.345Z,59.75
2017-09-03T12:41:31.192Z,60.57
2017-09-03T12:42:31.148Z,60.58
2017-09-03T12:43:31.202Z,61.49
2017-09-03T12:44:30.942Z,64.64
2017-09-03T12:45:30.387Z,60.70
2017-09-03T12:46:30.334Z,60.66
2017-09-03T12:47:30.401Z,56.97
2017-09-03T12:48:30.372Z,58.51
2017-09-03T12:49:30.318Z,57.48
2017-09-03T12:50:30.391Z,58.12